Time;durP1;ratioP1;P1;durP2;ratioP2;P2;SDS_P1;SDS_P2;PMS_P1;PMS_P2;Temp;Humidity;BMP_temperature;BMP_pressure;BME280_temperature;BME280_humidity;BME280_pressure;Samples;Min_cycle;Max_cycle;Signal;HPM_P1;HPM_P2
2022/07/24 00:02:11;;;;;;;3.30;2.70;;;18.90;99.90;20.50;97163.00;;;;5072651;28;20211;-62
2022/07/24 00:05:01;;;;;;;3.57;2.30;;;18.90;99.90;20.20;97156.00;;;;5073747;28;20204;-62
2022/07/24 00:07:50;;;;;;;2.77;2.57;;;18.90;99.90;20.40;97160.00;;;;5073899;28;20203;-62
2022/07/24 00:10:38;;;;;;;4.63;2.80;;;18.90;99.90;20.30;97142.00;;;;5075242;28;20231;-62
2022/07/24 00:13:27;;;;;;;3.10;2.80;;;18.80;99.90;20.40;97158.00;;;;5078342;28;20219;-62
2022/07/24 00:16:17;;;;;;;3.40;2.60;;;18.80;99.90;20.40;97152.00;;;;5077142;28;20195;-62
2022/07/24 00:19:06;;;;;;;3.43;2.67;;;18.80;99.90;20.40;97139.00;;;;5078417;28;20211;-62
2022/07/24 00:21:57;;;;;;;2.40;2.20;;;18.80;99.90;20.40;97138.00;;;;5071800;28;20559;-62
2022/07/24 00:24:45;;;;;;;4.23;3.63;;;18.80;99.90;20.30;97145.00;;;;5077589;28;20214;-62
2022/07/24 00:27:34;;;;;;;3.30;3.00;;;18.80;99.90;20.20;97135.00;;;;5075735;28;20192;-61
2022/07/24 00:30:23;;;;;;;2.97;2.60;;;18.80;99.90;20.20;97135.00;;;;5079794;28;20227;-62
2022/07/24 00:33:13;;;;;;;4.43;3.07;;;18.80;99.90;20.30;97141.00;;;;5079977;28;20210;-62
2022/07/24 00:36:02;;;;;;;3.73;2.77;;;18.80;99.90;20.20;97139.00;;;;5081813;28;20211;-62
2022/07/24 00:38:51;;;;;;;5.10;2.90;;;18.80;99.90;20.10;97137.00;;;;5073989;28;20569;-62
2022/07/24 00:41:40;;;;;;;3.23;2.93;;;18.70;99.90;19.90;97131.00;;;;5085418;28;20231;-62
2022/07/24 00:44:29;;;;;;;3.03;2.77;;;18.70;99.90;19.80;97124.00;;;;5084365;28;20346;-62
2022/07/24 00:47:18;;;;;;;4.93;2.90;;;18.60;99.90;20.10;97121.00;;;;5073787;28;21036;-62
2022/07/24 00:50:09;;;;;;;5.30;3.83;;;18.60;99.90;20.20;97133.00;;;;5076938;28;20242;-62
2022/07/24 00:52:59;;;;;;;3.87;3.40;;;18.60;99.90;20.20;97127.00;;;;5082737;28;20683;-62
2022/07/24 00:55:47;;;;;;;4.97;3.37;;;18.60;99.90;20.30;97119.00;;;;5086426;28;20698;-62
2022/07/24 00:58:36;;;;;;;3.90;3.20;;;18.70;99.90;20.40;97113.00;;;;5080123;28;20203;-62
2022/07/24 01:01:25;;;;;;;5.63;3.20;;;18.70;99.90;20.30;97121.00;;;;5077716;28;20199;-62
2022/07/24 01:04:14;;;;;;;3.50;3.20;;;18.70;99.90;20.30;97111.00;;;;5076268;28;20203;-62
2022/07/24 01:07:04;;;;;;;6.63;2.80;;;18.70;99.90;20.30;97115.00;;;;5075470;28;20211;-62
2022/07/24 01:09:53;;;;;;;3.67;3.20;;;18.80;99.90;20.10;97107.00;;;;5078785;28;20232;-61
2022/07/24 01:12:42;;;;;;;3.27;2.97;;;18.70;99.90;20.30;97111.00;;;;5076886;28;20549;-61
2022/07/24 01:15:31;;;;;;;5.57;3.30;;;18.70;99.90;20.20;97112.00;;;;5077833;28;20202;-62
2022/07/24 01:18:20;;;;;;;6.20;3.17;;;18.70;99.90;20.30;97112.00;;;;5081445;28;20211;-62
2022/07/24 01:21:11;;;;;;;6.73;3.23;;;18.70;99.90;20.30;97114.00;;;;5071288;28;20224;-63
2022/07/24 01:24:00;;;;;;;4.43;4.13;;;18.70;99.90;20.10;97111.00;;;;5081440;28;20196;-62
2022/07/24 01:26:48;;;;;;;3.63;3.33;;;18.70;99.90;20.10;97112.00;;;;5082729;28;20199;-62
2022/07/24 01:29:37;;;;;;;4.20;3.47;;;18.60;99.90;20.00;97120.00;;;;5081410;28;20231;-63
2022/07/24 01:32:26;;;;;;;6.73;3.53;;;18.60;99.90;20.10;97128.00;;;;5075663;28;20207;-63
2022/07/24 01:35:14;;;;;;;4.87;3.57;;;18.60;99.90;20.10;97128.00;;;;5079676;28;20592;-63
2022/07/24 01:38:05;;;;;;;4.37;3.60;;;18.60;99.90;20.10;97132.00;;;;5081703;28;20219;-63
2022/07/24 01:40:54;;;;;;;4.10;3.70;;;18.60;99.90;20.00;97135.00;;;;5085416;28;20729;-63
2022/07/24 01:43:42;;;;;;;4.03;3.40;;;18.60;99.90;20.10;97135.00;;;;5075434;28;20208;-63
2022/07/24 01:46:31;;;;;;;3.70;3.40;;;18.50;99.90;20.00;97140.00;;;;5076664;28;20201;-63
2022/07/24 01:49:21;;;;;;;6.37;3.83;;;18.50;99.90;19.80;97144.00;;;;5079598;28;20227;-62
2022/07/24 01:52:10;;;;;;;5.13;4.20;;;18.50;99.90;19.80;97149.00;;;;5084343;28;20210;-61
2022/07/24 01:55:00;;;;;;;4.00;3.60;;;18.50;99.90;20.00;97153.00;;;;5075973;28;20210;-62
2022/07/24 01:57:49;;;;;;;4.40;4.00;;;18.40;99.90;20.10;97157.00;;;;5078942;28;20198;-61
2022/07/24 02:00:37;;;;;;;6.50;3.97;;;18.50;99.90;20.30;97147.00;;;;5072360;28;20223;-61
2022/07/24 02:03:26;;;;;;;4.03;3.27;;;18.50;99.90;20.30;97149.00;;;;5080826;28;20199;-61
2022/07/24 02:06:15;;;;;;;5.87;4.50;;;18.60;99.90;20.30;97141.00;;;;5075159;28;20199;-62
2022/07/24 02:09:05;;;;;;;4.70;4.17;;;18.60;99.90;20.20;97147.00;;;;5076337;28;20200;-62
2022/07/24 02:11:55;;;;;;;4.13;3.63;;;18.60;99.90;19.60;97151.00;;;;5080849;28;20711;-62
2022/07/24 02:14:44;;;;;;;5.57;4.53;;;18.50;99.90;19.50;97151.00;;;;5079206;28;20207;-62
2022/07/24 02:17:33;;;;;;;10.53;4.50;;;18.50;99.90;19.60;97160.00;;;;5081077;28;20204;-63
2022/07/24 02:20:22;;;;;;;5.03;4.27;;;18.40;99.90;19.70;97156.00;;;;5076116;28;20228;-63
2022/07/24 02:23:11;;;;;;;5.00;4.10;;;18.40;99.90;19.80;97152.00;;;;5077494;28;20207;-63
2022/07/24 02:26:00;;;;;;;4.93;3.77;;;18.40;99.90;19.80;97145.00;;;;5076322;28;20686;-63
2022/07/24 02:28:50;;;;;;;5.53;4.07;;;18.40;99.90;19.90;97142.00;;;;5070827;28;20200;-63
2022/07/24 02:31:39;;;;;;;9.47;4.60;;;18.50;99.90;20.00;97140.00;;;;5080133;28;20686;-63
2022/07/24 02:34:27;;;;;;;7.90;4.47;;;18.50;99.90;19.90;97143.00;;;;5072635;28;20315;-62
2022/07/24 02:37:16;;;;;;;5.13;4.53;;;18.60;99.90;19.70;97132.00;;;;5076916;28;20200;-62
2022/07/24 02:40:08;;;;;;;6.50;4.73;;;18.50;99.90;19.70;97136.00;;;;5077133;28;20229;-62
2022/07/24 02:42:57;;;;;;;4.43;4.03;;;18.50;99.90;19.70;97143.00;;;;5078957;28;20220;-62
2022/07/24 02:45:47;;;;;;;5.30;4.50;;;18.50;99.90;19.70;97146.00;;;;5083032;28;20211;-64
2022/07/24 02:48:36;;;;;;;5.03;4.53;;;18.40;99.90;19.80;97147.00;;;;5084120;28;20205;-63
2022/07/24 02:51:25;;;;;;;6.53;4.70;;;18.40;99.90;19.80;97151.00;;;;5076703;28;20249;-63
2022/07/24 02:54:14;;;;;;;6.77;4.07;;;18.40;99.90;19.90;97151.00;;;;5073320;28;20200;-64
2022/07/24 02:57:02;;;;;;;5.60;4.20;;;18.50;99.90;19.80;97152.00;;;;5070916;28;20206;-63
2022/07/24 02:59:52;;;;;;;6.83;4.70;;;18.50;99.90;19.80;97154.00;;;;5073483;28;20231;-63
2022/07/24 03:02:43;;;;;;;6.47;4.97;;;18.40;99.90;19.80;97155.00;;;;5075498;28;20203;-64
2022/07/24 03:05:31;;;;;;;6.60;6.00;;;18.50;99.90;19.90;97167.00;;;;5071333;28;20705;-63
2022/07/24 03:08:20;;;;;;;6.67;4.43;;;18.50;99.90;19.90;97162.00;;;;5079772;28;20196;-63
2022/07/24 03:11:09;;;;;;;5.43;4.73;;;18.50;99.90;19.90;97165.00;;;;5074109;28;20346;-63
2022/07/24 03:13:58;;;;;;;5.60;5.10;;;18.50;99.90;19.60;97167.00;;;;5080032;28;20195;-63
2022/07/24 03:16:46;;;;;;;5.60;5.00;;;18.50;99.90;19.70;97171.00;;;;5077988;28;20199;-62
2022/07/24 03:19:36;;;;;;;6.07;5.40;;;18.50;99.90;19.70;97173.00;;;;5072888;28;20223;-62
2022/07/24 03:22:25;;;;;;;5.33;4.83;;;18.40;99.90;19.70;97176.00;;;;5075456;28;20607;-62
2022/07/24 03:25:15;;;;;;;10.57;5.60;;;18.40;99.90;19.80;97183.00;;;;5076221;28;20194;-62
2022/07/24 03:28:04;;;;;;;6.43;5.10;;;18.40;99.90;19.80;97185.00;;;;5074185;28;20210;-62
2022/07/24 03:30:52;;;;;;;5.40;4.90;;;18.40;99.90;19.80;97181.00;;;;5074243;28;20223;-62
2022/07/24 03:33:41;;;;;;;6.33;5.73;;;18.50;99.90;19.70;97176.00;;;;5073444;28;20696;-62
2022/07/24 03:36:32;;;;;;;6.23;5.57;;;18.50;99.90;19.80;97181.00;;;;5083303;28;20701;-62
2022/07/24 03:39:20;;;;;;;8.77;4.83;;;18.40;99.90;19.80;97176.00;;;;5075142;28;20227;-62
2022/07/24 03:42:09;;;;;;;5.60;5.03;;;18.50;99.90;19.70;97183.00;;;;5080928;28;20214;-62
2022/07/24 03:44:58;;;;;;;6.63;5.93;;;18.50;99.90;19.50;97187.00;;;;5077582;28;20996;-62
2022/07/24 03:47:47;;;;;;;8.63;5.40;;;18.50;99.90;19.40;97176.00;;;;5082800;28;20663;-62
2022/07/24 03:50:35;;;;;;;6.43;5.73;;;18.40;99.90;19.60;97189.00;;;;5080657;28;20231;-62
2022/07/24 03:53:25;;;;;;;8.23;6.40;;;18.40;99.90;19.80;97186.00;;;;5079174;28;20198;-63
2022/07/24 03:56:15;;;;;;;10.00;6.47;;;18.40;99.90;19.80;97188.00;;;;5079091;28;20206;-62
2022/07/24 03:59:03;;;;;;;10.40;6.87;;;18.40;99.90;19.90;97190.00;;;;5075261;28;20203;-62
2022/07/24 04:01:52;;;;;;;8.17;6.33;;;18.40;99.90;19.80;97191.00;;;;5078766;28;20222;-62
2022/07/24 04:04:41;;;;;;;6.87;6.17;;;18.50;99.90;19.60;97200.00;;;;5085862;28;20195;-62
2022/07/24 04:07:30;;;;;;;8.50;6.47;;;18.40;99.90;19.70;97202.00;;;;5090839;28;20207;-62
2022/07/24 04:10:20;;;;;;;6.43;5.80;;;18.50;99.90;19.70;97195.00;;;;5090368;28;20227;-62
2022/07/24 04:13:09;;;;;;;9.80;6.90;;;18.40;99.90;19.80;97198.00;;;;5078669;28;20583;-62
2022/07/24 04:15:58;;;;;;;8.60;6.27;;;18.40;99.90;19.80;97202.00;;;;5090218;28;20716;-62
2022/07/24 04:18:47;;;;;;;7.17;6.20;;;18.50;99.90;19.60;97206.00;;;;5081428;28;20199;-62
2022/07/24 04:21:36;;;;;;;7.63;6.83;;;18.40;99.90;19.60;97213.00;;;;5079838;28;20211;-62
2022/07/24 04:24:25;;;;;;;8.30;6.27;;;18.50;99.90;19.60;97214.00;;;;5087804;28;20709;-62
2022/07/24 04:27:15;;;;;;;7.93;6.73;;;18.50;99.90;19.60;97218.00;;;;5091029;28;20187;-62
2022/07/24 04:30:06;;;;;;;7.37;6.73;;;18.40;99.90;19.50;97221.00;;;;5084819;28;20705;-62
2022/07/24 04:32:54;;;;;;;7.83;7.13;;;18.40;99.90;19.80;97217.00;;;;5081700;28;20211;-62
2022/07/24 04:35:43;;;;;;;9.13;7.50;;;18.40;99.90;19.80;97216.00;;;;5074340;28;20207;-62
2022/07/24 04:38:33;;;;;;;7.47;6.77;;;18.50;99.90;19.70;97215.00;;;;5088916;28;20683;-62
2022/07/24 04:41:22;;;;;;;10.40;7.47;;;18.40;99.90;19.60;97209.00;;;;5090603;28;20578;-62
2022/07/24 04:44:12;;;;;;;6.30;5.80;;;18.50;99.90;19.50;97213.00;;;;5090857;28;20972;-63
2022/07/24 04:47:01;;;;;;;7.30;6.57;;;18.50;99.90;19.20;97213.00;;;;5091952;28;20226;-62
2022/07/24 04:49:49;;;;;;;14.80;6.67;;;18.40;99.90;19.40;97226.00;;;;5087982;28;20215;-62
2022/07/24 04:52:38;;;;;;;7.30;6.60;;;18.40;99.90;19.50;97228.00;;;;5083330;28;20230;-62
2022/07/24 04:55:27;;;;;;;8.03;7.23;;;18.30;99.90;19.30;97228.00;;;;5080358;28;20204;-63
2022/07/24 04:58:16;;;;;;;7.50;6.47;;;18.30;99.90;19.50;97226.00;;;;5089633;28;20200;-63
2022/07/24 05:01:07;;;;;;;12.07;8.63;;;18.30;99.90;19.80;97239.00;;;;5079757;28;20310;-62
2022/07/24 05:03:58;;;;;;;8.07;7.23;;;18.30;99.90;19.80;97235.00;;;;5083547;28;20207;-62
2022/07/24 05:06:47;;;;;;;7.93;7.17;;;18.40;99.90;19.80;97239.00;;;;5080657;28;20277;-62
2022/07/24 05:09:36;;;;;;;7.40;6.50;;;18.40;99.90;19.60;97255.00;;;;5084289;28;20612;-62
2022/07/24 05:12:25;;;;;;;7.53;6.50;;;18.40;99.90;19.70;97241.00;;;;5086423;28;20224;-62
2022/07/24 05:15:13;;;;;;;10.23;7.43;;;18.50;99.90;19.70;97244.00;;;;5080575;28;20199;-62
2022/07/24 05:18:04;;;;;;;9.23;8.00;;;18.40;99.90;20.00;97242.00;;;;5076773;28;20203;-63
2022/07/24 05:20:52;;;;;;;11.27;8.93;;;18.50;99.90;20.20;97243.00;;;;5088649;28;20227;-63
2022/07/24 05:23:42;;;;;;;8.63;7.73;;;18.60;99.90;20.40;97245.00;;;;5089207;28;20214;-63
2022/07/24 05:26:32;;;;;;;9.53;8.53;;;18.70;99.90;20.40;97235.00;;;;5086411;28;20199;-63
2022/07/24 05:29:21;;;;;;;9.77;7.73;;;18.80;99.90;20.20;97242.00;;;;5084395;28;20725;-62
2022/07/24 05:32:10;;;;;;;8.00;7.20;;;18.90;99.90;20.40;97261.00;;;;5090530;28;20226;-63
2022/07/24 05:35:00;;;;;;;9.40;6.97;;;19.00;99.90;20.30;97269.00;;;;5085709;28;20562;-62
2022/07/24 05:37:49;;;;;;;9.77;7.80;;;19.00;99.90;20.50;97272.00;;;;5082749;28;20222;-63
2022/07/24 05:40:37;;;;;;;10.07;9.23;;;19.10;99.90;20.80;97271.00;;;;5080635;28;20231;-63
2022/07/24 05:43:26;;;;;;;10.90;8.40;;;19.20;99.90;20.90;97269.00;;;;5081741;28;20204;-62
2022/07/24 05:46:15;;;;;;;9.57;8.50;;;19.30;99.90;20.80;97280.00;;;;5082304;28;20196;-63
2022/07/24 05:49:05;;;;;;;10.03;7.70;;;19.40;99.90;20.80;97276.00;;;;5078967;28;20670;-63
2022/07/24 05:51:56;;;;;;;11.93;8.00;;;19.40;99.90;20.70;97281.00;;;;5079221;28;20264;-62
2022/07/24 05:54:44;;;;;;;13.33;8.10;;;19.50;99.90;20.70;97287.00;;;;5077054;28;20199;-63
2022/07/24 05:57:33;;;;;;;8.40;7.60;;;19.50;99.90;20.70;97287.00;;;;5084645;28;20222;-63
2022/07/24 06:00:22;;;;;;;8.00;7.23;;;19.50;99.90;20.70;97278.00;;;;5089858;28;20223;-63
2022/07/24 06:03:11;;;;;;;8.37;7.53;;;19.50;99.90;20.70;97285.00;;;;5084649;28;20267;-63
2022/07/24 06:06:00;;;;;;;11.90;7.80;;;19.30;99.90;21.00;97275.00;;;;5071411;28;20203;-63
2022/07/24 06:08:50;;;;;;;9.53;8.53;;;19.60;99.90;21.00;97274.00;;;;5080970;28;20199;-63
2022/07/24 06:11:38;;;;;;;11.60;9.07;;;20.40;99.90;21.10;97270.00;;;;5079788;28;20235;-63
2022/07/24 06:14:28;;;;;;;10.70;9.60;;;19.80;99.90;21.50;97282.00;;;;5080233;28;20196;-63
2022/07/24 06:17:16;;;;;;;8.90;7.90;;;19.90;99.90;21.50;97277.00;;;;5080717;28;20663;-64
2022/07/24 06:20:06;;;;;;;8.53;7.67;;;20.00;99.90;21.50;97272.00;;;;5079280;28;20590;-64
2022/07/24 06:22:55;;;;;;;9.73;8.80;;;20.10;99.90;21.70;97264.00;;;;5082141;28;20203;-63
2022/07/24 06:25:45;;;;;;;11.47;8.30;;;20.30;99.90;21.70;97273.00;;;;5082723;28;20615;-63
2022/07/24 06:28:34;;;;;;;10.70;8.50;;;20.40;99.90;21.90;97265.00;;;;5079871;28;20588;-63
2022/07/24 06:31:23;;;;;;;8.73;7.83;;;20.50;99.90;21.90;97266.00;;;;5079645;28;20200;-63
2022/07/24 06:34:11;;;;;;;11.63;7.70;;;20.50;99.90;21.80;97265.00;;;;5080752;28;20195;-63
2022/07/24 06:37:00;;;;;;;12.43;9.67;;;20.50;99.90;22.20;97270.00;;;;5079242;28;20200;-63
2022/07/24 06:39:49;;;;;;;10.67;9.23;;;20.60;99.90;22.10;97268.00;;;;5079313;28;20224;-63
2022/07/24 06:42:39;;;;;;;10.70;9.37;;;20.70;99.90;22.20;97276.00;;;;5080978;28;20199;-63
2022/07/24 06:45:31;;;;;;;9.17;7.93;;;20.80;99.90;22.30;97266.00;;;;5078310;28;20200;-62
2022/07/24 06:48:19;;;;;;;9.57;7.97;;;20.80;99.90;22.30;97261.00;;;;5080143;28;20203;-63
2022/07/24 06:51:08;;;;;;;11.00;8.73;;;20.90;99.90;22.60;97261.00;;;;5081852;28;20218;-63
2022/07/24 06:53:57;;;;;;;8.30;7.57;;;21.00;99.90;22.60;97273.00;;;;5078276;28;20203;-63
2022/07/24 06:56:45;;;;;;;9.37;8.20;;;21.10;99.90;22.60;97268.00;;;;5079446;28;20645;-64
2022/07/24 06:59:38;;;;;;;10.70;9.60;;;21.10;99.90;22.60;97267.00;;;;5080600;28;20219;-63
2022/07/24 07:02:27;;;;;;;9.10;7.83;;;21.20;99.90;22.70;97266.00;;;;5081399;28;20199;-60
2022/07/24 07:05:16;;;;;;;10.07;9.07;;;21.20;99.90;22.90;97269.00;;;;5088442;28;20203;-62
2022/07/24 07:08:05;;;;;;;12.87;9.37;;;21.30;99.90;23.10;97256.00;;;;5084438;28;20214;-62
2022/07/24 07:10:54;;;;;;;8.27;7.47;;;21.30;99.90;23.10;97268.00;;;;5076536;28;20694;-62
2022/07/24 07:13:43;;;;;;;8.80;7.97;;;21.50;99.90;22.90;97262.00;;;;5087437;28;20227;-62
2022/07/24 07:16:33;;;;;;;9.37;8.43;;;21.50;99.90;23.00;97266.00;;;;5087768;28;20301;-62
2022/07/24 07:19:22;;;;;;;9.33;8.43;;;21.50;99.90;23.00;97254.00;;;;5087177;28;20660;-62
2022/07/24 07:22:11;;;;;;;9.30;8.40;;;21.50;99.90;23.40;97253.00;;;;5088319;28;20210;-61
2022/07/24 07:24:59;;;;;;;9.50;8.50;;;21.70;99.90;24.00;97248.00;;;;5084632;28;20655;-62
2022/07/24 07:27:48;;;;;;;8.97;7.77;;;21.90;99.90;24.30;97261.00;;;;5076159;28;20207;-62
2022/07/24 07:30:37;;;;;;;8.37;7.57;;;22.20;99.90;24.40;97249.00;;;;5084107;28;20227;-63
2022/07/24 07:33:27;;;;;;;8.60;6.77;;;22.40;99.90;24.20;97259.00;;;;5072393;28;20766;-61
2022/07/24 07:36:16;;;;;;;8.47;7.07;;;22.50;99.90;24.20;97259.00;;;;5081434;28;20611;-62
2022/07/24 07:39:05;;;;;;;8.60;7.70;;;22.50;99.90;24.40;97256.00;;;;5083967;28;20597;-63
2022/07/24 07:41:54;;;;;;;9.47;7.50;;;22.60;99.90;24.50;97268.00;;;;5087576;28;20577;-63
2022/07/24 07:44:43;;;;;;;8.23;7.53;;;22.70;99.90;24.70;97267.00;;;;5077840;28;20223;-63
2022/07/24 07:47:31;;;;;;;8.77;7.77;;;22.80;99.90;24.70;97262.00;;;;5084723;28;20203;-63
2022/07/24 07:50:21;;;;;;;8.97;8.07;;;22.80;99.90;24.90;97248.00;;;;5089888;28;20562;-63
2022/07/24 07:53:10;;;;;;;7.93;7.23;;;23.00;99.90;25.10;97248.00;;;;5091323;28;20702;-62
2022/07/24 07:55:59;;;;;;;8.13;7.30;;;23.10;99.90;25.10;97243.00;;;;5084599;28;20566;-63
2022/07/24 07:58:48;;;;;;;7.70;7.00;;;23.30;99.90;25.30;97237.00;;;;5084376;28;20191;-63
2022/07/24 08:01:37;;;;;;;7.73;6.93;;;23.40;99.90;25.50;97240.00;;;;5079312;28;20222;-63
2022/07/24 08:04:25;;;;;;;8.80;7.50;;;23.50;99.90;25.80;97243.00;;;;5081259;28;20612;-63
2022/07/24 08:07:15;;;;;;;8.13;7.43;;;23.70;99.90;26.10;97253.00;;;;5090366;28;20214;-62
2022/07/24 08:10:05;;;;;;;11.00;6.87;;;23.90;99.90;26.30;97241.00;;;;5081404;28;20584;-64
2022/07/24 08:12:54;;;;;;;8.70;7.80;;;24.10;99.90;26.20;97252.00;;;;5081288;28;20219;-64
2022/07/24 08:15:43;;;;;;;8.80;7.53;;;24.30;99.90;26.50;97238.00;;;;5082506;28;20215;-63
2022/07/24 08:18:32;;;;;;;10.67;7.10;;;24.40;99.90;26.80;97239.00;;;;5077666;28;20602;-63
2022/07/24 08:21:21;;;;;;;8.40;7.60;;;24.60;99.90;26.90;97253.00;;;;5085065;28;20206;-63
2022/07/24 08:24:12;;;;;;;8.73;7.80;;;24.80;99.90;27.30;97239.00;;;;5082617;28;20206;-63
2022/07/24 08:27:00;;;;;;;8.63;7.10;;;25.00;99.90;27.50;97245.00;;;;5079011;28;20207;-63
2022/07/24 08:29:49;;;;;;;7.63;6.93;;;25.20;99.90;27.60;97243.00;;;;5084485;28;20230;-63
2022/07/24 08:32:38;;;;;;;8.93;7.30;;;25.40;99.90;27.60;97241.00;;;;5072301;28;20229;-62
2022/07/24 08:35:28;;;;;;;8.40;6.77;;;25.60;99.90;27.70;97243.00;;;;5086729;28;20203;-63
2022/07/24 08:38:20;;;;;;;7.07;6.37;;;25.60;99.90;27.90;97244.00;;;;5083444;28;20206;-62
2022/07/24 08:41:10;;;;;;;7.57;6.87;;;25.80;99.90;27.90;97236.00;;;;5083352;28;20228;-64
2022/07/24 08:43:59;;;;;;;8.83;6.93;;;25.80;99.90;27.80;97230.00;;;;5076381;28;20563;-62
2022/07/24 08:46:50;;;;;;;6.77;6.17;;;25.80;99.90;28.20;97234.00;;;;5079134;28;20203;-61
2022/07/24 08:49:40;;;;;;;8.70;7.90;;;26.00;99.90;28.40;97241.00;;;;5089124;28;20217;-62
2022/07/24 08:52:29;;;;;;;7.00;6.30;;;26.20;99.90;28.60;97234.00;;;;5089986;28;20213;-62
2022/07/24 08:55:18;;;;;;;6.93;6.27;;;26.30;99.90;28.80;97235.00;;;;5083427;28;20206;-60
2022/07/24 08:58:08;;;;;;;7.63;6.83;;;26.50;99.90;28.90;97242.00;;;;5087951;28;20201;-62
2022/07/24 09:00:57;;;;;;;7.20;6.50;;;26.70;99.90;29.20;97242.00;;;;5081236;28;20238;-61
2022/07/24 09:03:48;;;;;;;6.17;5.67;;;26.90;99.90;29.00;97237.00;;;;5085303;28;20707;-63
2022/07/24 09:06:37;;;;;;;6.30;5.70;;;27.00;99.90;29.40;97236.00;;;;5083557;28;20201;-62
2022/07/24 09:09:25;;;;;;;6.70;6.10;;;27.10;99.90;29.60;97232.00;;;;5081369;28;20226;-63
2022/07/24 09:12:17;;;;;;;7.73;6.97;;;27.30;99.90;29.90;97230.00;;;;5074291;28;20206;-63
2022/07/24 09:15:16;;;;;;;8.80;6.77;;;27.50;99.90;29.70;97232.00;;;;5080444;28;20203;-63
2022/07/24 09:18:05;;;;;;;7.93;6.43;;;27.60;99.90;29.60;97232.00;;;;5080934;28;20302;-63
2022/07/24 09:20:54;;;;;;;7.10;6.40;;;27.70;99.90;30.00;97223.00;;;;5080226;28;20225;-63
2022/07/24 09:23:43;;;;;;;6.67;6.07;;;27.80;99.90;29.50;97231.00;;;;5080707;28;20204;-63
2022/07/24 09:26:45;;;;;;;7.53;6.27;;;27.80;99.90;29.90;97225.00;;;;5080969;28;20649;-63
2022/07/24 09:29:35;;;;;;;6.60;6.00;;;27.90;99.90;29.70;97224.00;;;;5083294;28;20219;-64
2022/07/24 09:32:26;;;;;;;6.67;6.07;;;27.90;99.90;30.00;97215.00;;;;5078868;28;20206;-63
2022/07/24 09:35:16;;;;;;;8.27;6.17;;;28.00;99.90;30.10;97217.00;;;;5076340;28;20205;-64
2022/07/24 09:38:07;;;;;;;7.87;5.60;;;28.10;99.90;30.30;97222.00;;;;5077087;28;20210;-63
2022/07/24 09:40:59;;;;;;;6.83;5.93;;;28.20;99.90;30.40;97215.00;;;;5089182;28;20238;-64
2022/07/24 09:43:59;;;;;;;6.67;5.97;;;28.30;99.90;30.60;97210.00;;;;5087022;28;20209;-62
2022/07/24 09:46:49;;;;;;;6.53;5.93;;;28.40;99.90;31.20;97209.00;;;;5089449;28;20959;-62
2022/07/24 09:49:40;;;;;;;6.87;6.27;;;28.70;99.90;30.90;97223.00;;;;5083795;28;20226;-62
2022/07/24 09:52:34;;;;;;;7.23;6.63;;;28.90;99.90;31.50;97199.00;;;;5076731;28;20650;-63
2022/07/24 09:55:25;;;;;;;7.20;6.37;;;29.00;99.90;31.20;97228.00;;;;5079589;28;20847;-62
2022/07/24 09:58:18;;;;;;;7.47;6.40;;;29.10;99.90;30.30;97212.00;;;;5082260;28;20200;-60
2022/07/24 10:01:09;;;;;;;7.33;6.70;;;28.90;99.90;30.70;97194.00;;;;5079198;28;20230;-64
2022/07/24 10:04:00;;;;;;;8.03;6.87;;;28.90;99.90;30.30;97235.00;;;;5086712;28;20211;-62
2022/07/24 10:06:53;;;;;;;6.30;5.80;;;28.80;99.90;29.90;97212.00;;;;5081852;28;20208;-62
2022/07/24 10:09:44;;;;;;;6.33;5.77;;;28.60;99.90;29.50;97236.00;;;;5087764;28;20232;-62
2022/07/24 10:12:33;;;;;;;7.47;6.87;;;28.30;98.50;30.80;97191.00;;;;5087842;28;20710;-62
2022/07/24 10:15:22;;;;;;;6.50;6.00;;;28.40;99.70;32.10;97193.00;;;;5081570;28;20237;-62
2022/07/24 10:18:19;;;;;;;6.40;5.87;;;28.90;99.90;32.10;97198.00;;;;5088901;28;20203;-61
2022/07/24 10:21:10;;;;;;;7.33;6.57;;;29.30;99.90;31.80;97190.00;;;;5081076;28;20225;-62
2022/07/24 10:25:02;;;;;;;6.60;6.00;;;29.50;99.60;31.50;97204.00;;;;5081004;28;20220;-62
2022/07/24 10:27:55;;;;;;;6.38;5.88;;;29.50;97.20;31.10;97223.00;;;;5075276;28;20202;-62
2022/07/24 10:30:44;;;;;;;8.10;6.25;;;29.40;97.00;30.90;97220.00;;;;5075326;28;20230;-62
2022/07/24 10:33:39;;;;;;;6.50;5.97;;;29.20;97.70;30.70;97181.00;;;;5070793;28;20700;-62
2022/07/24 10:36:34;;;;;;;6.23;5.63;;;29.10;98.10;30.50;97210.00;;;;5079940;28;20220;-62
2022/07/24 10:39:32;;;;;;;8.10;5.75;;;28.90;97.80;30.10;97205.00;;;;5084419;28;20239;-61
2022/07/24 10:42:21;;;;;;;7.57;5.30;;;28.80;97.60;29.70;97210.00;;;;5077310;28;20197;-62
2022/07/24 10:45:18;;;;;;;7.07;6.47;;;28.60;97.80;29.90;97199.00;;;;5083742;28;20206;-62
2022/07/24 10:48:32;;;;;;;7.43;6.63;;;28.40;96.90;30.00;97212.00;;;;5084304;28;20225;-61
2022/07/24 10:51:24;;;;;;;7.10;6.40;;;28.40;96.60;29.80;97202.00;;;;5089159;28;20286;-61
2022/07/24 10:54:19;;;;;;;6.70;5.73;;;28.20;96.90;29.50;97201.00;;;;5080719;28;20225;-62
2022/07/24 10:57:09;;;;;;;7.07;6.47;;;28.10;96.30;29.40;97200.00;;;;5080704;28;20191;-62
2022/07/24 10:59:58;;;;;;;7.27;5.93;;;28.00;96.80;29.10;97185.00;;;;5073638;28;20225;-63
2022/07/24 11:03:00;;;;;;;7.97;6.37;;;27.90;96.60;29.70;97196.00;;;;5086579;28;20205;-62
2022/07/24 11:06:07;;;;;;;7.10;6.40;;;27.90;96.10;29.10;97202.00;;;;5084660;28;20209;-62
2022/07/24 11:09:03;;;;;;;7.17;6.47;;;27.70;96.70;29.10;97200.00;;;;5080918;28;20702;-60
2022/07/24 11:12:07;;;;;;;6.70;6.10;;;27.60;96.10;30.30;97136.00;;;;5087038;28;20293;-61
2022/07/24 11:15:53;;;;;;;6.27;5.73;;;28.00;97.90;31.50;97132.00;;;;5078898;28;20576;-61
2022/07/24 11:18:15;;;;;;;6.30;5.80;;;28.60;99.30;31.40;97125.00;;;;5085984;28;20201;-62
2022/07/24 11:21:04;;;;;;;7.13;6.43;;;29.10;96.40;32.80;97140.00;;;;5077774;28;20220;-61
2022/07/24 11:24:19;;;;;;;6.70;6.10;;;29.70;94.60;33.40;97129.00;;;;5077928;28;20215;-61
2022/07/24 11:27:17;;;;;;;6.57;5.97;;;30.20;95.90;31.00;97120.00;;;;5087981;28;20219;-62
2022/07/24 11:30:10;;;;;;;7.47;6.18;;;30.20;90.90;31.10;97101.00;;;;5080245;28;20228;-61
2022/07/24 11:33:00;;;;;;;6.18;5.68;;;29.90;91.10;32.50;97153.00;;;;5087100;28;20224;-62
2022/07/24 11:35:49;;;;;;;6.72;6.03;;;30.10;91.60;31.30;97164.00;;;;5080680;28;20643;-62
2022/07/24 11:38:38;;;;;;;7.10;6.40;;;30.00;92.90;31.30;97099.00;;;;5079117;28;20682;-62
2022/07/24 11:41:27;;;;;;;7.00;6.40;;;29.90;91.20;32.40;97105.00;;;;5077833;28;20203;-62
2022/07/24 11:44:24;;;;;;;7.28;6.63;;;30.30;91.10;30.70;97115.00;;;;5077488;28;20198;-61
2022/07/24 11:47:17;;;;;;;7.05;6.40;;;30.00;90.20;31.20;97096.00;;;;5079537;28;20206;-62
2022/07/24 11:50:09;;;;;;;6.88;6.28;;;30.00;89.20;30.80;97146.00;;;;5079580;28;20691;-61
2022/07/24 11:52:58;;;;;;;7.03;6.33;;;29.80;88.50;30.10;97139.00;;;;5082259;28;20215;-61
2022/07/24 11:55:46;;;;;;;6.47;5.87;;;29.40;91.90;29.70;97123.00;;;;5076364;28;20233;-64
2022/07/24 11:58:39;;;;;;;6.30;5.63;;;29.00;91.50;29.50;97147.00;;;;5078593;28;20213;-61
2022/07/24 12:01:27;;;;;;;6.70;6.10;;;28.80;92.30;29.80;97137.00;;;;5080889;28;20200;-63
2022/07/24 12:04:22;;;;;;;6.37;5.80;;;28.70;92.30;29.80;97118.00;;;;5085180;28;20197;-61
2022/07/24 12:07:13;;;;;;;6.80;6.27;;;28.60;93.30;30.60;97074.00;;;;5086783;28;20200;-62
2022/07/24 12:10:04;;;;;;;7.33;6.73;;;28.90;92.30;31.50;97066.00;;;;5088637;28;20695;-61
2022/07/24 12:12:54;;;;;;;7.03;6.43;;;29.30;92.20;31.80;97074.00;;;;5086580;28;20800;-60
2022/07/24 12:15:43;;;;;;;7.33;6.63;;;29.70;91.40;32.40;97066.00;;;;5082999;28;20225;-61
2022/07/24 12:18:32;;;;;;;7.40;6.70;;;30.10;91.40;31.80;97069.00;;;;5082769;28;20199;-60
2022/07/24 12:21:24;;;;;;;7.00;6.30;;;30.20;90.30;32.80;97070.00;;;;5073091;28;20217;-61
2022/07/24 12:24:13;;;;;;;7.10;6.05;;;30.60;88.40;33.50;97066.00;;;;5083152;28;20223;-60
2022/07/24 12:27:02;;;;;;;6.45;5.85;;;31.10;88.20;31.80;97062.00;;;;5082019;28;20208;-60
2022/07/24 12:29:51;;;;;;;5.70;5.15;;;31.00;85.40;32.10;97067.00;;;;5091535;28;20224;-63
2022/07/24 12:32:55;;;;;;;7.07;6.38;;;30.80;84.20;32.70;97062.00;;;;5088957;28;20212;-60
2022/07/24 12:36:08;;;;;;;5.95;5.00;;;30.90;83.50;32.70;97065.00;;;;5089240;28;20227;-62